sensor_id;sensor_type;location;lat;lon;timestamp;temperature;humidity
15413;DHT22;7805;49.554;7.632;2023-09-19T00:00:21;18.40;99.90
15413;DHT22;7805;49.554;7.632;2023-09-19T00:02:57;18.40;99.90
15413;DHT22;7805;49.554;7.632;2023-09-19T00:05:28;18.50;99.90
15413;DHT22;7805;49.554;7.632;2023-09-19T00:07:56;18.40;99.90
15413;DHT22;7805;49.554;7.632;2023-09-19T00:10:26;18.40;99.90
15413;DHT22;7805;49.554;7.632;2023-09-19T00:12:53;18.40;99.90
15413;DHT22;7805;49.554;7.632;2023-09-19T00:15:25;18.30;99.90
15413;DHT22;7805;49.554;7.632;2023-09-19T00:17:54;18.60;99.90
15413;DHT22;7805;49.554;7.632;2023-09-19T00:20:20;18.30;99.90
15413;DHT22;7805;49.554;7.632;2023-09-19T00:22:49;18.30;99.90
15413;DHT22;7805;49.554;7.632;2023-09-19T00:25:17;18.30;99.90
15413;DHT22;7805;49.554;7.632;2023-09-19T00:27:43;18.30;99.90
15413;DHT22;7805;49.554;7.632;2023-09-19T00:30:11;18.20;99.90
15413;DHT22;7805;49.554;7.632;2023-09-19T00:32:42;18.20;99.90
15413;DHT22;7805;49.554;7.632;2023-09-19T00:35:08;18.20;99.90
15413;DHT22;7805;49.554;7.632;2023-09-19T00:37:37;18.30;99.90
15413;DHT22;7805;49.554;7.632;2023-09-19T00:40:06;18.20;99.90
15413;DHT22;7805;49.554;7.632;2023-09-19T00:42:32;18.20;99.90
15413;DHT22;7805;49.554;7.632;2023-09-19T00:44:59;18.20;99.90
15413;DHT22;7805;49.554;7.632;2023-09-19T00:47:24;18.50;99.90
15413;DHT22;7805;49.554;7.632;2023-09-19T00:49:51;18.20;99.90
15413;DHT22;7805;49.554;7.632;2023-09-19T00:52:18;18.40;99.90
15413;DHT22;7805;49.554;7.632;2023-09-19T00:54:47;18.30;99.90
15413;DHT22;7805;49.554;7.632;2023-09-19T00:57:14;18.30;99.90
15413;DHT22;7805;49.554;7.632;2023-09-19T00:59:41;18.20;99.90
15413;DHT22;7805;49.554;7.632;2023-09-19T01:02:07;18.30;99.90
15413;DHT22;7805;49.554;7.632;2023-09-19T01:04:34;18.20;99.90
15413;DHT22;7805;49.554;7.632;2023-09-19T01:06:59;18.20;99.90
15413;DHT22;7805;49.554;7.632;2023-09-19T01:09:25;18.20;99.90
15413;DHT22;7805;49.554;7.632;2023-09-19T01:11:53;18.30;99.90
15413;DHT22;7805;49.554;7.632;2023-09-19T01:14:42;18.30;99.90
15413;DHT22;7805;49.554;7.632;2023-09-19T01:17:27;18.30;99.90
15413;DHT22;7805;49.554;7.632;2023-09-19T01:20:03;18.30;99.90
15413;DHT22;7805;49.554;7.632;2023-09-19T01:22:58;18.30;99.90
15413;DHT22;7805;49.554;7.632;2023-09-19T01:30:59;18.30;99.90
15413;DHT22;7805;49.554;7.632;2023-09-19T01:33:26;18.30;99.90
15413;DHT22;7805;49.554;7.632;2023-09-19T01:35:52;18.30;99.90
15413;DHT22;7805;49.554;7.632;2023-09-19T01:38:19;18.40;99.90
15413;DHT22;7805;49.554;7.632;2023-09-19T01:41:00;18.30;99.90
15413;DHT22;7805;49.554;7.632;2023-09-19T01:43:42;18.30;99.90
15413;DHT22;7805;49.554;7.632;2023-09-19T01:46:22;18.30;99.90
15413;DHT22;7805;49.554;7.632;2023-09-19T01:52:10;18.20;99.90
15413;DHT22;7805;49.554;7.632;2023-09-19T01:54:51;18.20;99.90
15413;DHT22;7805;49.554;7.632;2023-09-19T01:57:31;18.10;99.90
15413;DHT22;7805;49.554;7.632;2023-09-19T02:00:07;18.10;99.90
15413;DHT22;7805;49.554;7.632;2023-09-19T02:02:35;18.10;99.90
15413;DHT22;7805;49.554;7.632;2023-09-19T02:05:02;18.10;99.90
15413;DHT22;7805;49.554;7.632;2023-09-19T02:07:29;18.10;99.90
15413;DHT22;7805;49.554;7.632;2023-09-19T02:09:57;18.00;99.90
15413;DHT22;7805;49.554;7.632;2023-09-19T02:12:25;18.10;99.90
15413;DHT22;7805;49.554;7.632;2023-09-19T02:14:51;18.00;99.90
15413;DHT22;7805;49.554;7.632;2023-09-19T02:17:16;17.90;99.90
15413;DHT22;7805;49.554;7.632;2023-09-19T02:19:42;17.80;99.90
15413;DHT22;7805;49.554;7.632;2023-09-19T02:22:08;17.80;99.90
15413;DHT22;7805;49.554;7.632;2023-09-19T02:24:36;17.90;99.90
15413;DHT22;7805;49.554;7.632;2023-09-19T02:27:02;17.90;99.90
15413;DHT22;7805;49.554;7.632;2023-09-19T02:29:31;17.90;99.90
15413;DHT22;7805;49.554;7.632;2023-09-19T02:31:57;17.90;99.90
15413;DHT22;7805;49.554;7.632;2023-09-19T02:34:23;18.10;99.90
15413;DHT22;7805;49.554;7.632;2023-09-19T02:36:49;18.00;99.90
15413;DHT22;7805;49.554;7.632;2023-09-19T02:39:14;18.00;99.90
15413;DHT22;7805;49.554;7.632;2023-09-19T02:41:40;18.00;99.90
15413;DHT22;7805;49.554;7.632;2023-09-19T02:44:07;17.90;99.90
15413;DHT22;7805;49.554;7.632;2023-09-19T02:46:36;17.80;99.90
15413;DHT22;7805;49.554;7.632;2023-09-19T02:49:02;17.70;99.90
15413;DHT22;7805;49.554;7.632;2023-09-19T02:51:32;17.60;99.90
15413;DHT22;7805;49.554;7.632;2023-09-19T02:53:59;17.60;99.90
15413;DHT22;7805;49.554;7.632;2023-09-19T02:56:24;17.60;99.90
15413;DHT22;7805;49.554;7.632;2023-09-19T02:58:50;17.50;99.90
15413;DHT22;7805;49.554;7.632;2023-09-19T03:01:16;17.50;99.90
15413;DHT22;7805;49.554;7.632;2023-09-19T03:03:43;17.50;99.90
15413;DHT22;7805;49.554;7.632;2023-09-19T03:06:10;17.40;99.90
15413;DHT22;7805;49.554;7.632;2023-09-19T03:08:36;17.50;99.90
15413;DHT22;7805;49.554;7.632;2023-09-19T03:11:04;17.30;99.90
15413;DHT22;7805;49.554;7.632;2023-09-19T03:13:32;17.30;99.90
15413;DHT22;7805;49.554;7.632;2023-09-19T03:15:57;17.30;99.90
15413;DHT22;7805;49.554;7.632;2023-09-19T03:18:26;17.30;99.90
15413;DHT22;7805;49.554;7.632;2023-09-19T03:20:55;17.30;99.90
15413;DHT22;7805;49.554;7.632;2023-09-19T03:23:21;17.20;99.90
15413;DHT22;7805;49.554;7.632;2023-09-19T03:25:47;17.20;99.90
15413;DHT22;7805;49.554;7.632;2023-09-19T03:28:13;17.10;99.90
15413;DHT22;7805;49.554;7.632;2023-09-19T03:30:40;17.10;99.90
15413;DHT22;7805;49.554;7.632;2023-09-19T03:33:06;17.10;99.90
15413;DHT22;7805;49.554;7.632;2023-09-19T03:35:32;17.10;99.90
15413;DHT22;7805;49.554;7.632;2023-09-19T03:37:57;17.10;99.90
15413;DHT22;7805;49.554;7.632;2023-09-19T03:40:23;17.10;99.90
15413;DHT22;7805;49.554;7.632;2023-09-19T03:42:50;17.10;99.90
15413;DHT22;7805;49.554;7.632;2023-09-19T03:45:16;17.00;99.90
15413;DHT22;7805;49.554;7.632;2023-09-19T03:47:43;17.10;99.90
15413;DHT22;7805;49.554;7.632;2023-09-19T03:50:09;17.40;99.90
15413;DHT22;7805;49.554;7.632;2023-09-19T03:52:40;17.00;99.90
15413;DHT22;7805;49.554;7.632;2023-09-19T03:55:06;17.00;99.90
15413;DHT22;7805;49.554;7.632;2023-09-19T03:57:32;17.00;99.90
15413;DHT22;7805;49.554;7.632;2023-09-19T03:59:57;17.00;99.90
15413;DHT22;7805;49.554;7.632;2023-09-19T04:02:23;17.00;99.90
15413;DHT22;7805;49.554;7.632;2023-09-19T04:04:52;16.90;99.90
15413;DHT22;7805;49.554;7.632;2023-09-19T04:07:18;16.40;99.90
15413;DHT22;7805;49.554;7.632;2023-09-19T04:09:48;16.90;99.90
15413;DHT22;7805;49.554;7.632;2023-09-19T04:12:14;16.80;99.90
15413;DHT22;7805;49.554;7.632;2023-09-19T04:14:42;16.80;99.90
15413;DHT22;7805;49.554;7.632;2023-09-19T04:17:08;16.80;99.90
15413;DHT22;7805;49.554;7.632;2023-09-19T04:19:33;16.80;99.90
15413;DHT22;7805;49.554;7.632;2023-09-19T04:21:59;16.80;99.90
15413;DHT22;7805;49.554;7.632;2023-09-19T04:24:24;16.80;99.90
15413;DHT22;7805;49.554;7.632;2023-09-19T04:26:50;16.90;99.90
15413;DHT22;7805;49.554;7.632;2023-09-19T04:29:15;16.90;99.90
15413;DHT22;7805;49.554;7.632;2023-09-19T04:31:41;16.90;99.90
15413;DHT22;7805;49.554;7.632;2023-09-19T04:34:10;16.90;99.90
15413;DHT22;7805;49.554;7.632;2023-09-19T04:36:40;17.00;99.90
15413;DHT22;7805;49.554;7.632;2023-09-19T04:39:05;16.90;99.90
15413;DHT22;7805;49.554;7.632;2023-09-19T04:41:31;16.90;99.90
15413;DHT22;7805;49.554;7.632;2023-09-19T04:43:56;16.90;99.90
15413;DHT22;7805;49.554;7.632;2023-09-19T04:46:22;16.90;99.90
15413;DHT22;7805;49.554;7.632;2023-09-19T04:48:47;16.90;99.90
15413;DHT22;7805;49.554;7.632;2023-09-19T04:51:13;16.90;99.90
15413;DHT22;7805;49.554;7.632;2023-09-19T04:53:40;16.80;99.90
15413;DHT22;7805;49.554;7.632;2023-09-19T04:56:06;16.80;99.90
15413;DHT22;7805;49.554;7.632;2023-09-19T04:58:33;16.80;99.90
15413;DHT22;7805;49.554;7.632;2023-09-19T05:00:59;16.80;99.90
15413;DHT22;7805;49.554;7.632;2023-09-19T05:03:25;15.20;99.90
15413;DHT22;7805;49.554;7.632;2023-09-19T05:05:50;16.80;99.90
15413;DHT22;7805;49.554;7.632;2023-09-19T05:08:16;16.70;99.90
15413;DHT22;7805;49.554;7.632;2023-09-19T05:10:41;16.70;99.90
15413;DHT22;7805;49.554;7.632;2023-09-19T05:13:07;16.70;99.90
15413;DHT22;7805;49.554;7.632;2023-09-19T05:15:33;16.70;99.90
15413;DHT22;7805;49.554;7.632;2023-09-19T05:17:59;16.60;99.90
15413;DHT22;7805;49.554;7.632;2023-09-19T05:20:25;16.60;99.90
15413;DHT22;7805;49.554;7.632;2023-09-19T05:23:05;16.70;99.90
15413;DHT22;7805;49.554;7.632;2023-09-19T05:25:36;16.70;99.90
15413;DHT22;7805;49.554;7.632;2023-09-19T05:28:09;16.70;99.90
15413;DHT22;7805;49.554;7.632;2023-09-19T05:30:37;16.70;99.90
15413;DHT22;7805;49.554;7.632;2023-09-19T05:33:04;16.80;99.90
15413;DHT22;7805;49.554;7.632;2023-09-19T05:35:30;16.80;99.90
15413;DHT22;7805;49.554;7.632;2023-09-19T05:37:56;16.80;99.90
15413;DHT22;7805;49.554;7.632;2023-09-19T05:40:24;16.70;99.90
15413;DHT22;7805;49.554;7.632;2023-09-19T05:42:50;16.70;99.90
15413;DHT22;7805;49.554;7.632;2023-09-19T05:45:16;16.70;99.90
15413;DHT22;7805;49.554;7.632;2023-09-19T05:47:48;16.70;99.90
15413;DHT22;7805;49.554;7.632;2023-09-19T05:50:15;16.70;99.90
15413;DHT22;7805;49.554;7.632;2023-09-19T05:52:41;16.80;99.90
15413;DHT22;7805;49.554;7.632;2023-09-19T05:55:08;16.80;99.90
15413;DHT22;7805;49.554;7.632;2023-09-19T05:57:34;16.80;99.90
15413;DHT22;7805;49.554;7.632;2023-09-19T06:00:00;16.80;99.90
15413;DHT22;7805;49.554;7.632;2023-09-19T06:02:26;16.70;99.90
15413;DHT22;7805;49.554;7.632;2023-09-19T06:04:55;16.70;99.90
15413;DHT22;7805;49.554;7.632;2023-09-19T06:07:24;16.80;99.90
15413;DHT22;7805;49.554;7.632;2023-09-19T06:09:52;16.70;99.90
15413;DHT22;7805;49.554;7.632;2023-09-19T06:12:21;16.70;99.90
15413;DHT22;7805;49.554;7.632;2023-09-19T06:14:46;16.70;99.90
15413;DHT22;7805;49.554;7.632;2023-09-19T06:17:13;16.90;99.90
15413;DHT22;7805;49.554;7.632;2023-09-19T06:19:39;16.90;99.90
15413;DHT22;7805;49.554;7.632;2023-09-19T06:22:05;17.00;99.90
15413;DHT22;7805;49.554;7.632;2023-09-19T06:24:30;17.20;99.90
15413;DHT22;7805;49.554;7.632;2023-09-19T06:26:56;17.10;99.90
15413;DHT22;7805;49.554;7.632;2023-09-19T06:29:22;17.00;99.90
15413;DHT22;7805;49.554;7.632;2023-09-19T06:31:48;17.10;99.90
15413;DHT22;7805;49.554;7.632;2023-09-19T06:34:14;17.10;99.90
15413;DHT22;7805;49.554;7.632;2023-09-19T06:36:41;17.20;99.90
15413;DHT22;7805;49.554;7.632;2023-09-19T06:39:07;17.40;99.90
15413;DHT22;7805;49.554;7.632;2023-09-19T06:41:36;17.30;99.90
15413;DHT22;7805;49.554;7.632;2023-09-19T06:44:03;17.40;99.90
15413;DHT22;7805;49.554;7.632;2023-09-19T06:46:30;17.50;99.90
15413;DHT22;7805;49.554;7.632;2023-09-19T06:49:00;17.50;99.90
15413;DHT22;7805;49.554;7.632;2023-09-19T06:51:26;17.60;99.90
15413;DHT22;7805;49.554;7.632;2023-09-19T06:53:51;17.80;99.90
15413;DHT22;7805;49.554;7.632;2023-09-19T06:56:19;17.90;99.90
15413;DHT22;7805;49.554;7.632;2023-09-19T06:58:51;18.00;99.90
15413;DHT22;7805;49.554;7.632;2023-09-19T07:01:16;18.00;99.90
15413;DHT22;7805;49.554;7.632;2023-09-19T07:03:43;18.10;99.90
15413;DHT22;7805;49.554;7.632;2023-09-19T07:06:11;18.20;99.90
15413;DHT22;7805;49.554;7.632;2023-09-19T07:08:36;18.30;99.90
15413;DHT22;7805;49.554;7.632;2023-09-19T07:11:03;18.50;99.90
15413;DHT22;7805;49.554;7.632;2023-09-19T07:13:31;18.60;99.90
15413;DHT22;7805;49.554;7.632;2023-09-19T07:15:58;18.50;99.90
15413;DHT22;7805;49.554;7.632;2023-09-19T07:18:24;18.50;99.90
15413;DHT22;7805;49.554;7.632;2023-09-19T07:20:50;18.50;99.90
15413;DHT22;7805;49.554;7.632;2023-09-19T07:23:17;18.30;99.90
15413;DHT22;7805;49.554;7.632;2023-09-19T07:25:43;19.00;99.90
15413;DHT22;7805;49.554;7.632;2023-09-19T07:28:09;19.10;99.90
15413;DHT22;7805;49.554;7.632;2023-09-19T07:30:36;19.20;99.90
15413;DHT22;7805;49.554;7.632;2023-09-19T07:33:03;19.30;99.90
15413;DHT22;7805;49.554;7.632;2023-09-19T07:35:30;19.30;99.90
15413;DHT22;7805;49.554;7.632;2023-09-19T07:37:56;19.50;99.90
15413;DHT22;7805;49.554;7.632;2023-09-19T07:40:26;19.20;99.90
15413;DHT22;7805;49.554;7.632;2023-09-19T07:42:54;19.20;99.90
15413;DHT22;7805;49.554;7.632;2023-09-19T07:45:20;18.90;99.90
15413;DHT22;7805;49.554;7.632;2023-09-19T07:47:46;18.70;99.90
15413;DHT22;7805;49.554;7.632;2023-09-19T07:50:13;18.80;99.90
15413;DHT22;7805;49.554;7.632;2023-09-19T07:52:38;18.80;99.90
15413;DHT22;7805;49.554;7.632;2023-09-19T07:55:06;18.80;99.90
15413;DHT22;7805;49.554;7.632;2023-09-19T07:57:38;18.70;99.90
15413;DHT22;7805;49.554;7.632;2023-09-19T08:00:04;18.70;99.90
15413;DHT22;7805;49.554;7.632;2023-09-19T08:02:34;18.60;99.90
15413;DHT22;7805;49.554;7.632;2023-09-19T08:05:00;18.80;99.90
15413;DHT22;7805;49.554;7.632;2023-09-19T08:07:26;19.10;99.90
15413;DHT22;7805;49.554;7.632;2023-09-19T08:09:51;19.20;99.90
15413;DHT22;7805;49.554;7.632;2023-09-19T08:12:17;19.20;99.90
15413;DHT22;7805;49.554;7.632;2023-09-19T08:14:42;19.10;99.90
15413;DHT22;7805;49.554;7.632;2023-09-19T08:17:08;19.40;99.90
15413;DHT22;7805;49.554;7.632;2023-09-19T08:19:34;19.70;99.90
15413;DHT22;7805;49.554;7.632;2023-09-19T08:22:00;19.80;99.90
15413;DHT22;7805;49.554;7.632;2023-09-19T08:24:30;19.90;99.90
15413;DHT22;7805;49.554;7.632;2023-09-19T08:26:56;19.80;99.90
15413;DHT22;7805;49.554;7.632;2023-09-19T08:29:23;19.80;99.90
15413;DHT22;7805;49.554;7.632;2023-09-19T08:31:56;19.70;99.90
15413;DHT22;7805;49.554;7.632;2023-09-19T08:34:23;19.70;99.90
15413;DHT22;7805;49.554;7.632;2023-09-19T08:36:53;19.60;99.90
15413;DHT22;7805;49.554;7.632;2023-09-19T08:39:25;19.80;99.90
15413;DHT22;7805;49.554;7.632;2023-09-19T08:42:00;20.00;99.90
15413;DHT22;7805;49.554;7.632;2023-09-19T08:44:27;20.10;99.90
15413;DHT22;7805;49.554;7.632;2023-09-19T08:47:10;20.10;99.90
15413;DHT22;7805;49.554;7.632;2023-09-19T08:50:04;20.00;99.90
15413;DHT22;7805;49.554;7.632;2023-09-19T08:52:42;19.80;99.90
15413;DHT22;7805;49.554;7.632;2023-09-19T08:55:13;19.60;99.90
15413;DHT22;7805;49.554;7.632;2023-09-19T08:57:39;19.60;99.90
15413;DHT22;7805;49.554;7.632;2023-09-19T09:00:08;19.70;99.90
15413;DHT22;7805;49.554;7.632;2023-09-19T09:02:40;19.80;99.90
15413;DHT22;7805;49.554;7.632;2023-09-19T09:05:09;19.90;99.90
15413;DHT22;7805;49.554;7.632;2023-09-19T09:07:40;20.00;99.90
15413;DHT22;7805;49.554;7.632;2023-09-19T09:10:06;20.10;99.90
15413;DHT22;7805;49.554;7.632;2023-09-19T09:12:33;20.20;99.90
15413;DHT22;7805;49.554;7.632;2023-09-19T09:15:02;20.40;99.90
15413;DHT22;7805;49.554;7.632;2023-09-19T09:17:29;20.20;99.90
15413;DHT22;7805;49.554;7.632;2023-09-19T09:19:55;20.10;99.90
15413;DHT22;7805;49.554;7.632;2023-09-19T09:22:21;20.10;99.90
15413;DHT22;7805;49.554;7.632;2023-09-19T09:24:56;20.00;99.90
15413;DHT22;7805;49.554;7.632;2023-09-19T09:27:24;20.10;99.70
15413;DHT22;7805;49.554;7.632;2023-09-19T09:29:51;20.20;99.90
15413;DHT22;7805;49.554;7.632;2023-09-19T09:34:51;20.90;99.90
15413;DHT22;7805;49.554;7.632;2023-09-19T09:37:17;21.60;99.30
15413;DHT22;7805;49.554;7.632;2023-09-19T09:39:55;22.00;98.10
15413;DHT22;7805;49.554;7.632;2023-09-19T09:42:36;22.40;96.70
15413;DHT22;7805;49.554;7.632;2023-09-19T09:45:17;22.50;96.90
15413;DHT22;7805;49.554;7.632;2023-09-19T09:47:49;22.50;94.40
15413;DHT22;7805;49.554;7.632;2023-09-19T09:50:32;22.50;95.10
15413;DHT22;7805;49.554;7.632;2023-09-19T09:53:24;22.50;94.50
15413;DHT22;7805;49.554;7.632;2023-09-19T09:58:23;23.10;94.70
15413;DHT22;7805;49.554;7.632;2023-09-19T10:00:55;23.20;93.60
15413;DHT22;7805;49.554;7.632;2023-09-19T10:03:40;23.40;93.30
15413;DHT22;7805;49.554;7.632;2023-09-19T10:06:13;23.60;93.10
15413;DHT22;7805;49.554;7.632;2023-09-19T10:09:07;23.30;91.30
15413;DHT22;7805;49.554;7.632;2023-09-19T10:11:40;23.20;92.10
15413;DHT22;7805;49.554;7.632;2023-09-19T10:14:09;23.20;92.70
15413;DHT22;7805;49.554;7.632;2023-09-19T10:16:41;23.40;93.00
15413;DHT22;7805;49.554;7.632;2023-09-19T10:19:10;23.30;92.40
15413;DHT22;7805;49.554;7.632;2023-09-19T10:21:38;23.00;92.70
15413;DHT22;7805;49.554;7.632;2023-09-19T10:24:05;23.00;92.30
15413;DHT22;7805;49.554;7.632;2023-09-19T10:26:35;22.90;92.60
15413;DHT22;7805;49.554;7.632;2023-09-19T10:29:01;23.00;92.60
15413;DHT22;7805;49.554;7.632;2023-09-19T10:31:29;23.10;92.50
15413;DHT22;7805;49.554;7.632;2023-09-19T10:34:03;23.00;90.80
15413;DHT22;7805;49.554;7.632;2023-09-19T10:36:32;23.40;91.80
15413;DHT22;7805;49.554;7.632;2023-09-19T10:39:02;23.60;91.30
15413;DHT22;7805;49.554;7.632;2023-09-19T10:41:32;23.60;90.20
15413;DHT22;7805;49.554;7.632;2023-09-19T10:44:03;23.60;90.30
15413;DHT22;7805;49.554;7.632;2023-09-19T10:46:34;23.70;89.20
15413;DHT22;7805;49.554;7.632;2023-09-19T10:49:01;23.60;88.70
15413;DHT22;7805;49.554;7.632;2023-09-19T10:51:31;23.60;88.00
15413;DHT22;7805;49.554;7.632;2023-09-19T10:54:15;23.50;88.90
15413;DHT22;7805;49.554;7.632;2023-09-19T10:56:46;23.40;90.10
15413;DHT22;7805;49.554;7.632;2023-09-19T10:59:18;23.60;89.10
15413;DHT22;7805;49.554;7.632;2023-09-19T11:01:49;24.10;88.50
15413;DHT22;7805;49.554;7.632;2023-09-19T11:04:32;23.90;84.80
15413;DHT22;7805;49.554;7.632;2023-09-19T11:07:12;23.90;85.20
15413;DHT22;7805;49.554;7.632;2023-09-19T11:15:01;24.50;84.10
15413;DHT22;7805;49.554;7.632;2023-09-19T11:17:37;24.80;83.00
15413;DHT22;7805;49.554;7.632;2023-09-19T11:30:50;25.10;79.20
15413;DHT22;7805;49.554;7.632;2023-09-19T11:33:32;25.40;78.50
15413;DHT22;7805;49.554;7.632;2023-09-19T11:36:14;25.40;73.20
15413;DHT22;7805;49.554;7.632;2023-09-19T11:46:17;25.60;75.50
15413;DHT22;7805;49.554;7.632;2023-09-19T11:48:48;25.80;74.90
15413;DHT22;7805;49.554;7.632;2023-09-19T11:51:18;25.40;73.40
15413;DHT22;7805;49.554;7.632;2023-09-19T11:53:54;25.40;72.80
15413;DHT22;7805;49.554;7.632;2023-09-19T11:56:22;25.60;72.90
15413;DHT22;7805;49.554;7.632;2023-09-19T11:58:50;25.70;72.60
15413;DHT22;7805;49.554;7.632;2023-09-19T12:01:33;25.90;73.00
15413;DHT22;7805;49.554;7.632;2023-09-19T12:04:01;25.90;72.70
15413;DHT22;7805;49.554;7.632;2023-09-19T12:06:30;26.00;71.90
15413;DHT22;7805;49.554;7.632;2023-09-19T12:08:57;25.80;70.80
15413;DHT22;7805;49.554;7.632;2023-09-19T12:11:29;25.60;71.60
15413;DHT22;7805;49.554;7.632;2023-09-19T12:13:59;25.80;72.50
15413;DHT22;7805;49.554;7.632;2023-09-19T12:16:26;25.90;72.00
15413;DHT22;7805;49.554;7.632;2023-09-19T12:18:56;26.00;72.60
15413;DHT22;7805;49.554;7.632;2023-09-19T12:21:30;26.10;72.00
15413;DHT22;7805;49.554;7.632;2023-09-19T12:24:13;26.80;72.30
15413;DHT22;7805;49.554;7.632;2023-09-19T12:26:45;27.00;70.30
15413;DHT22;7805;49.554;7.632;2023-09-19T12:29:20;26.80;68.90
15413;DHT22;7805;49.554;7.632;2023-09-19T12:31:51;26.60;68.90
15413;DHT22;7805;49.554;7.632;2023-09-19T12:34:20;26.30;68.80
15413;DHT22;7805;49.554;7.632;2023-09-19T12:36:46;26.10;70.00
15413;DHT22;7805;49.554;7.632;2023-09-19T12:39:22;26.40;71.30
15413;DHT22;7805;49.554;7.632;2023-09-19T12:41:49;26.40;69.60
15413;DHT22;7805;49.554;7.632;2023-09-19T12:44:16;26.60;69.90
15413;DHT22;7805;49.554;7.632;2023-09-19T12:46:44;25.90;68.20
15413;DHT22;7805;49.554;7.632;2023-09-19T12:49:18;26.30;67.70
15413;DHT22;7805;49.554;7.632;2023-09-19T12:51:47;26.40;69.20
15413;DHT22;7805;49.554;7.632;2023-09-19T12:54:13;26.50;69.90
15413;DHT22;7805;49.554;7.632;2023-09-19T12:56:45;26.30;68.60
15413;DHT22;7805;49.554;7.632;2023-09-19T12:59:13;26.00;69.10
15413;DHT22;7805;49.554;7.632;2023-09-19T13:01:40;25.90;69.10
15413;DHT22;7805;49.554;7.632;2023-09-19T13:04:19;25.70;69.30
15413;DHT22;7805;49.554;7.632;2023-09-19T13:06:50;25.40;70.00
15413;DHT22;7805;49.554;7.632;2023-09-19T13:09:16;25.40;70.90
15413;DHT22;7805;49.554;7.632;2023-09-19T13:11:43;25.60;71.10
15413;DHT22;7805;49.554;7.632;2023-09-19T13:14:15;25.70;70.70
15413;DHT22;7805;49.554;7.632;2023-09-19T13:17:04;25.60;69.80
15413;DHT22;7805;49.554;7.632;2023-09-19T13:19:41;25.80;71.00
15413;DHT22;7805;49.554;7.632;2023-09-19T13:25:08;26.10;69.80
15413;DHT22;7805;49.554;7.632;2023-09-19T13:27:39;26.50;71.10
15413;DHT22;7805;49.554;7.632;2023-09-19T13:30:05;26.70;69.00
15413;DHT22;7805;49.554;7.632;2023-09-19T13:32:32;26.40;68.30
15413;DHT22;7805;49.554;7.632;2023-09-19T13:34:58;26.30;68.30
15413;DHT22;7805;49.554;7.632;2023-09-19T13:37:24;26.50;69.00
15413;DHT22;7805;49.554;7.632;2023-09-19T13:39:49;26.70;68.70
15413;DHT22;7805;49.554;7.632;2023-09-19T13:42:15;27.00;68.30
15413;DHT22;7805;49.554;7.632;2023-09-19T13:44:41;27.20;67.70
15413;DHT22;7805;49.554;7.632;2023-09-19T13:47:07;27.00;68.40
15413;DHT22;7805;49.554;7.632;2023-09-19T13:49:35;27.20;68.20
15413;DHT22;7805;49.554;7.632;2023-09-19T13:52:02;27.40;68.30
15413;DHT22;7805;49.554;7.632;2023-09-19T13:54:30;27.30;67.00
15413;DHT22;7805;49.554;7.632;2023-09-19T13:56:55;27.20;66.40
15413;DHT22;7805;49.554;7.632;2023-09-19T13:59:21;27.00;66.40
15413;DHT22;7805;49.554;7.632;2023-09-19T14:01:49;27.00;67.60
15413;DHT22;7805;49.554;7.632;2023-09-19T14:04:15;27.10;67.80
15413;DHT22;7805;49.554;7.632;2023-09-19T14:06:43;26.90;67.10
15413;DHT22;7805;49.554;7.632;2023-09-19T14:09:11;26.70;68.30
15413;DHT22;7805;49.554;7.632;2023-09-19T14:11:37;26.70;68.20
15413;DHT22;7805;49.554;7.632;2023-09-19T14:14:02;26.90;68.60
15413;DHT22;7805;49.554;7.632;2023-09-19T14:16:30;26.90;67.90
15413;DHT22;7805;49.554;7.632;2023-09-19T14:18:57;27.00;68.40
15413;DHT22;7805;49.554;7.632;2023-09-19T14:21:23;27.30;68.80
15413;DHT22;7805;49.554;7.632;2023-09-19T14:23:49;27.50;68.00
15413;DHT22;7805;49.554;7.632;2023-09-19T14:26:15;27.80;68.10
15413;DHT22;7805;49.554;7.632;2023-09-19T14:28:42;27.90;67.10
15413;DHT22;7805;49.554;7.632;2023-09-19T14:31:09;28.30;67.20
15413;DHT22;7805;49.554;7.632;2023-09-19T14:33:36;27.90;66.30
15413;DHT22;7805;49.554;7.632;2023-09-19T14:36:06;27.40;66.50
15413;DHT22;7805;49.554;7.632;2023-09-19T14:38:33;27.20;67.50
15413;DHT22;7805;49.554;7.632;2023-09-19T14:41:03;26.30;68.80
15413;DHT22;7805;49.554;7.632;2023-09-19T14:43:29;26.00;70.50
15413;DHT22;7805;49.554;7.632;2023-09-19T14:45:56;25.70;71.50
15413;DHT22;7805;49.554;7.632;2023-09-19T14:48:23;25.50;72.40
15413;DHT22;7805;49.554;7.632;2023-09-19T14:50:52;25.60;74.50
15413;DHT22;7805;49.554;7.632;2023-09-19T14:53:17;25.80;74.40
15413;DHT22;7805;49.554;7.632;2023-09-19T14:55:44;25.80;74.10
15413;DHT22;7805;49.554;7.632;2023-09-19T14:58:11;25.60;74.40
15413;DHT22;7805;49.554;7.632;2023-09-19T15:00:37;25.60;75.20
15413;DHT22;7805;49.554;7.632;2023-09-19T15:03:03;25.20;76.20
15413;DHT22;7805;49.554;7.632;2023-09-19T15:05:29;25.10;77.10
15413;DHT22;7805;49.554;7.632;2023-09-19T15:07:55;25.00;78.10
15413;DHT22;7805;49.554;7.632;2023-09-19T15:10:22;24.80;78.90
15413;DHT22;7805;49.554;7.632;2023-09-19T15:12:48;24.80;79.60
15413;DHT22;7805;49.554;7.632;2023-09-19T15:15:14;24.60;80.30
15413;DHT22;7805;49.554;7.632;2023-09-19T15:17:39;24.40;80.80
15413;DHT22;7805;49.554;7.632;2023-09-19T15:20:06;24.60;81.80
15413;DHT22;7805;49.554;7.632;2023-09-19T15:22:36;24.80;81.20
15413;DHT22;7805;49.554;7.632;2023-09-19T15:25:02;25.30;80.50
15413;DHT22;7805;49.554;7.632;2023-09-19T15:27:29;24.90;80.10
15413;DHT22;7805;49.554;7.632;2023-09-19T15:29:56;24.80;81.00
15413;DHT22;7805;49.554;7.632;2023-09-19T15:32:24;24.80;81.60
15413;DHT22;7805;49.554;7.632;2023-09-19T15:34:50;24.70;81.80
15413;DHT22;7805;49.554;7.632;2023-09-19T15:37:15;24.60;82.40
15413;DHT22;7805;49.554;7.632;2023-09-19T15:39:41;24.80;81.70
15413;DHT22;7805;49.554;7.632;2023-09-19T15:42:07;24.80;80.60
15413;DHT22;7805;49.554;7.632;2023-09-19T15:44:33;24.80;80.40
15413;DHT22;7805;49.554;7.632;2023-09-19T15:46:59;24.70;80.00
15413;DHT22;7805;49.554;7.632;2023-09-19T15:49:24;24.80;80.30
15413;DHT22;7805;49.554;7.632;2023-09-19T15:51:50;24.50;79.70
15413;DHT22;7805;49.554;7.632;2023-09-19T15:54:16;24.30;80.10
15413;DHT22;7805;49.554;7.632;2023-09-19T15:56:44;25.30;81.40
15413;DHT22;7805;49.554;7.632;2023-09-19T15:59:11;24.40;80.60
15413;DHT22;7805;49.554;7.632;2023-09-19T16:01:41;24.00;81.60
15413;DHT22;7805;49.554;7.632;2023-09-19T16:04:08;24.10;81.70
15413;DHT22;7805;49.554;7.632;2023-09-19T16:06:35;24.30;82.40
15413;DHT22;7805;49.554;7.632;2023-09-19T16:09:02;24.30;82.20
15413;DHT22;7805;49.554;7.632;2023-09-19T16:11:32;24.10;82.20
15413;DHT22;7805;49.554;7.632;2023-09-19T16:13:57;24.00;82.40
15413;DHT22;7805;49.554;7.632;2023-09-19T16:16:25;23.80;83.60
15413;DHT22;7805;49.554;7.632;2023-09-19T16:18:53;23.60;84.90
15413;DHT22;7805;49.554;7.632;2023-09-19T16:21:24;23.60;85.40
15413;DHT22;7805;49.554;7.632;2023-09-19T16:23:52;23.50;86.40
15413;DHT22;7805;49.554;7.632;2023-09-19T16:26:19;23.50;86.50
15413;DHT22;7805;49.554;7.632;2023-09-19T16:28:46;23.40;87.20
15413;DHT22;7805;49.554;7.632;2023-09-19T16:31:12;23.20;87.40
15413;DHT22;7805;49.554;7.632;2023-09-19T16:33:41;23.10;88.60